createdAt,value
2018-06-20T00:02:01.513Z,4.50
2018-06-20T00:04:30.085Z,3.93
2018-06-20T00:06:58.611Z,4.20
2018-06-20T00:09:27.222Z,4.00
2018-06-20T00:11:55.703Z,4.23
2018-06-20T00:14:24.239Z,4.07
2018-06-20T00:16:52.785Z,4.63
2018-06-20T00:19:21.302Z,4.07
2018-06-20T00:21:49.787Z,4.17
2018-06-20T00:24:18.323Z,4.63
2018-06-20T00:26:46.833Z,4.33
2018-06-20T00:29:15.452Z,4.50
2018-06-20T00:31:43.955Z,5.03
2018-06-20T00:34:12.469Z,5.10
2018-06-20T00:36:41.016Z,5.17
2018-06-20T00:39:10.537Z,4.97
2018-06-20T00:41:39.336Z,4.80
2018-06-20T00:44:08.237Z,4.70
2018-06-20T00:46:36.833Z,4.73
2018-06-20T00:49:05.695Z,5.00
2018-06-20T00:51:34.167Z,5.07
2018-06-20T00:54:02.901Z,5.60
2018-06-20T00:56:31.444Z,5.20
2018-06-20T00:58:59.987Z,5.27
2018-06-20T01:01:28.620Z,5.87
2018-06-20T01:03:57.283Z,5.80
2018-06-20T01:06:25.829Z,4.73
2018-06-20T01:08:55.185Z,5.33
2018-06-20T01:11:24.126Z,5.47
2018-06-20T01:13:52.706Z,5.20
2018-06-20T01:16:21.313Z,5.60
2018-06-20T01:18:49.890Z,4.80
2018-06-20T01:21:18.436Z,5.90
2018-06-20T01:23:47.564Z,5.67
2018-06-20T01:26:16.076Z,5.67
2018-06-20T01:28:44.558Z,5.60
2018-06-20T01:31:13.096Z,4.90
2018-06-20T01:33:41.670Z,4.83
2018-06-20T01:36:10.302Z,4.90
2018-06-20T01:38:38.796Z,4.77
2018-06-20T01:41:07.304Z,5.10
2018-06-20T01:43:35.792Z,6.03
2018-06-20T01:46:04.289Z,5.77
2018-06-20T01:48:32.795Z,4.50
2018-06-20T01:51:01.364Z,5.47
2018-06-20T01:53:29.858Z,6.27
2018-06-20T01:55:58.405Z,5.20
2018-06-20T01:58:26.863Z,5.62
2018-06-20T02:00:55.793Z,6.07
2018-06-20T02:03:24.304Z,6.10
2018-06-20T02:05:52.868Z,6.27
2018-06-20T02:08:21.597Z,5.07
2018-06-20T02:10:50.091Z,4.77
2018-06-20T02:13:18.620Z,4.70
2018-06-20T02:15:47.177Z,5.27
2018-06-20T02:18:15.682Z,5.97
2018-06-20T02:20:44.267Z,6.20
2018-06-20T02:23:12.779Z,6.30
2018-06-20T02:25:41.323Z,6.27
2018-06-20T02:28:10.176Z,6.83
2018-06-20T02:30:39.039Z,6.17
2018-06-20T02:33:07.869Z,6.07
2018-06-20T02:35:36.683Z,5.42
2018-06-20T02:38:05.537Z,5.37
2018-06-20T02:40:34.495Z,5.63
2018-06-20T02:43:03.296Z,5.57
2018-06-20T02:45:32.145Z,5.87
2018-06-20T02:48:01.006Z,5.67
2018-06-20T02:50:30.011Z,6.07
2018-06-20T02:52:58.914Z,5.13
2018-06-20T02:55:27.815Z,4.93
2018-06-20T02:57:56.664Z,5.40
2018-06-20T03:00:25.543Z,5.40
2018-06-20T03:02:54.823Z,6.27
2018-06-20T03:05:23.708Z,5.20
2018-06-20T03:07:52.589Z,5.77
2018-06-20T03:10:21.480Z,6.07
2018-06-20T03:12:50.314Z,5.90
2018-06-20T03:15:19.334Z,6.20
2018-06-20T03:17:48.169Z,6.10
2018-06-20T03:20:17.057Z,7.07
2018-06-20T03:22:45.969Z,7.07
2018-06-20T03:25:14.808Z,6.67
2018-06-20T03:27:43.625Z,5.73
2018-06-20T03:30:12.567Z,6.13
2018-06-20T03:32:41.315Z,6.47
2018-06-20T03:35:10.621Z,7.73
2018-06-20T03:37:39.475Z,6.27
2018-06-20T03:40:08.385Z,5.60
2018-06-20T03:42:37.199Z,6.07
2018-06-20T03:45:06.250Z,6.13
2018-06-20T03:47:34.936Z,5.77
2018-06-20T03:50:03.881Z,5.27
2018-06-20T03:52:32.875Z,6.17
2018-06-20T03:55:01.914Z,5.50
2018-06-20T03:57:30.900Z,5.33
2018-06-20T03:59:59.887Z,5.97
2018-06-20T04:02:28.999Z,5.90
2018-06-20T04:04:57.775Z,5.83
2018-06-20T04:07:26.687Z,6.67
2018-06-20T04:09:55.486Z,6.03
2018-06-20T04:12:24.381Z,5.33
2018-06-20T04:14:53.210Z,5.77
2018-06-20T04:17:21.987Z,5.10
2018-06-20T04:19:50.945Z,5.30
2018-06-20T04:22:19.769Z,5.07
2018-06-20T04:24:48.648Z,5.07
2018-06-20T04:27:17.397Z,5.43
2018-06-20T04:29:46.343Z,5.70
2018-06-20T04:32:15.431Z,5.47
2018-06-20T04:34:44.826Z,6.00
2018-06-20T04:37:13.757Z,6.20
2018-06-20T04:39:42.601Z,5.87
2018-06-20T04:42:11.453Z,6.87
2018-06-20T04:44:40.440Z,6.50
2018-06-20T04:47:10.248Z,6.27
2018-06-20T04:49:38.695Z,6.37
2018-06-20T04:52:07.747Z,5.67
2018-06-20T04:54:41.105Z,6.20
2018-06-20T04:57:09.812Z,5.83
2018-06-20T04:59:38.608Z,6.83
2018-06-20T05:02:07.383Z,6.00
2018-06-20T05:04:36.601Z,6.00
2018-06-20T05:07:05.493Z,5.70
2018-06-20T05:09:34.331Z,5.73
2018-06-20T05:12:03.273Z,5.03
2018-06-20T05:14:32.129Z,4.70
2018-06-20T05:17:00.948Z,5.50
2018-06-20T05:19:29.873Z,5.05
2018-06-20T05:21:58.692Z,5.20
2018-06-20T05:24:27.992Z,4.75
2018-06-20T05:26:56.753Z,4.65
2018-06-20T05:29:25.701Z,4.40
2018-06-20T05:31:54.725Z,4.70
2018-06-20T05:34:23.526Z,5.33
2018-06-20T05:36:52.332Z,5.00
2018-06-20T05:39:21.227Z,4.40
2018-06-20T05:41:50.097Z,5.28
2018-06-20T05:44:18.859Z,4.78
2018-06-20T05:46:47.701Z,6.03
2018-06-20T05:49:16.413Z,5.00
2018-06-20T05:51:45.341Z,5.80
2018-06-20T05:54:14.267Z,5.10
2018-06-20T05:56:43.175Z,5.22
2018-06-20T05:59:11.575Z,5.17
2018-06-20T06:01:40.387Z,6.70
2018-06-20T06:04:09.245Z,5.83
2018-06-20T06:06:38.203Z,7.33
2018-06-20T06:09:08.502Z,7.00
2018-06-20T06:11:37.366Z,7.22
2018-06-20T06:14:06.467Z,6.47
2018-06-20T06:16:35.319Z,5.80
2018-06-20T06:19:04.508Z,6.97
2018-06-20T06:21:33.326Z,4.45
2018-06-20T06:24:02.117Z,4.70
2018-06-20T06:26:30.937Z,5.03
2018-06-20T06:28:59.690Z,4.40
2018-06-20T06:31:28.510Z,4.85
2018-06-20T06:33:57.594Z,5.10
2018-06-20T06:36:26.424Z,4.47
2018-06-20T06:38:55.225Z,4.50
2018-06-20T06:41:23.982Z,4.47
2018-06-20T06:43:52.758Z,4.22
2018-06-20T06:46:21.594Z,4.80
2018-06-20T06:48:50.349Z,3.65
2018-06-20T06:51:19.212Z,3.50
2018-06-20T06:53:48.021Z,4.25
2018-06-20T06:56:16.809Z,4.22
2018-06-20T06:58:45.706Z,3.70
2018-06-20T07:01:14.482Z,3.62
2018-06-20T07:03:43.262Z,3.77
2018-06-20T07:06:12.096Z,3.20
2018-06-20T07:08:41.114Z,3.58
2018-06-20T07:11:09.606Z,3.52
2018-06-20T07:13:38.544Z,3.55
2018-06-20T07:16:07.398Z,2.70
2018-06-20T07:18:36.306Z,2.92
2018-06-20T07:21:05.478Z,3.17
2018-06-20T07:23:35.409Z,2.92
2018-06-20T07:26:04.436Z,3.20
2018-06-20T07:28:33.364Z,3.00
2018-06-20T07:31:02.346Z,3.02
2018-06-20T07:33:31.785Z,3.67
2018-06-20T07:36:00.744Z,3.35
2018-06-20T07:38:29.458Z,2.87
2018-06-20T07:40:58.305Z,2.95
2018-06-20T07:43:27.073Z,2.80
2018-06-20T07:45:56.029Z,3.00
2018-06-20T07:48:24.774Z,2.65
2018-06-20T07:50:53.600Z,2.80
2018-06-20T07:53:22.473Z,3.00
2018-06-20T07:55:51.329Z,3.25
2018-06-20T07:58:25.690Z,2.90
2018-06-20T08:00:59.683Z,2.65
2018-06-20T08:03:33.836Z,2.55
2018-06-20T08:06:07.986Z,2.17
2018-06-20T08:08:42.188Z,2.22
2018-06-20T08:11:16.278Z,2.55
2018-06-20T08:13:50.206Z,2.30
2018-06-20T08:16:24.281Z,2.45
2018-06-20T08:19:56.236Z,2.33
2018-06-20T08:22:25.688Z,2.40
2018-06-20T08:25:04.280Z,2.70
2018-06-20T08:27:34.238Z,2.45
2018-06-20T08:30:04.498Z,2.20
2018-06-20T08:32:34.318Z,2.55
2018-06-20T08:35:03.450Z,2.20
2018-06-20T08:37:32.871Z,2.40
2018-06-20T08:40:01.798Z,2.10
2018-06-20T08:42:30.804Z,2.05
2018-06-20T08:44:59.586Z,2.60
2018-06-20T08:47:28.486Z,2.30
2018-06-20T08:49:57.312Z,2.00
2018-06-20T08:52:26.476Z,2.35
2018-06-20T08:54:54.873Z,2.10
2018-06-20T08:57:23.790Z,2.47
2018-06-20T08:59:52.754Z,1.90
2018-06-20T09:02:21.768Z,1.62
2018-06-20T09:04:55.706Z,1.80
2018-06-20T09:07:29.941Z,2.10
2018-06-20T09:10:04.095Z,1.70
2018-06-20T09:12:38.070Z,2.15
2018-06-20T09:15:12.098Z,1.95
2018-06-20T09:17:46.568Z,2.20
2018-06-20T09:20:15.436Z,2.20
2018-06-20T09:22:44.168Z,2.00
2018-06-20T09:25:13.096Z,1.90
2018-06-20T09:27:41.992Z,2.08
2018-06-20T09:30:10.880Z,1.70
2018-06-20T09:32:39.656Z,1.90
2018-06-20T09:35:08.518Z,1.92
2018-06-20T09:37:37.340Z,2.00
2018-06-20T09:40:06.388Z,1.70
2018-06-20T09:42:35.352Z,1.70
2018-06-20T09:45:04.187Z,2.20
2018-06-20T09:47:33.145Z,1.92
2018-06-20T09:50:07.499Z,1.70
2018-06-20T09:52:36.424Z,1.90
2018-06-20T09:55:05.453Z,2.08
2018-06-20T09:57:34.244Z,2.15
2018-06-20T10:00:08.482Z,1.85
2018-06-20T10:02:42.660Z,2.05
2018-06-20T10:05:16.798Z,2.17
2018-06-20T10:07:50.756Z,2.10
2018-06-20T10:11:25.246Z,1.90
2018-06-20T10:14:01.810Z,2.00
2018-06-20T10:16:31.478Z,1.90
2018-06-20T10:19:00.404Z,3.27
2018-06-20T10:21:29.186Z,2.40
2018-06-20T10:24:01.054Z,1.90
2018-06-20T10:26:29.976Z,2.08
2018-06-20T10:28:58.384Z,3.87
2018-06-20T10:31:27.240Z,1.90
2018-06-20T10:33:56.101Z,2.22
2018-06-20T10:36:24.964Z,1.70
2018-06-20T10:38:54.140Z,2.00
2018-06-20T10:41:23.050Z,1.72
2018-06-20T10:43:51.952Z,1.75
2018-06-20T10:46:26.089Z,1.98
2018-06-20T10:48:54.781Z,1.80
2018-06-20T10:51:23.650Z,1.55
2018-06-20T10:53:52.424Z,2.00
2018-06-20T10:56:26.432Z,1.70
2018-06-20T10:59:00.465Z,1.70
2018-06-20T11:01:34.470Z,1.75
2018-06-20T11:04:08.660Z,1.60
2018-06-20T11:06:42.710Z,1.65
2018-06-20T11:09:16.793Z,1.75
2018-06-20T11:11:50.865Z,1.70
2018-06-20T11:14:19.614Z,1.70
2018-06-20T11:16:48.476Z,1.70
2018-06-20T11:19:17.350Z,1.67
2018-06-20T11:21:46.028Z,1.90
2018-06-20T11:24:14.757Z,1.80
2018-06-20T11:26:43.584Z,1.90
2018-06-20T11:29:12.515Z,2.30
2018-06-20T11:31:41.330Z,1.62
2018-06-20T11:34:10.148Z,1.60
2018-06-20T11:36:39.124Z,1.65
2018-06-20T11:39:10.260Z,1.95
2018-06-20T11:41:39.184Z,1.80
2018-06-20T11:44:08.032Z,2.42
2018-06-20T11:46:42.142Z,1.82
2018-06-20T11:49:11.001Z,1.52
2018-06-20T11:51:43.002Z,1.75
2018-06-20T11:54:12.432Z,1.47
2018-06-20T11:56:41.384Z,2.20
2018-06-20T11:59:15.476Z,1.72
2018-06-20T12:01:49.580Z,2.00
2018-06-20T12:04:23.766Z,2.10
2018-06-20T12:06:57.838Z,1.80
2018-06-20T12:09:32.204Z,1.82
2018-06-20T12:12:06.380Z,2.22
2018-06-20T12:14:40.404Z,1.67
2018-06-20T12:17:08.642Z,1.85
2018-06-20T12:19:48.455Z,1.80
2018-06-20T12:22:22.573Z,2.00
2018-06-20T12:24:56.460Z,2.20
2018-06-20T12:27:30.450Z,1.82
2018-06-20T12:30:04.490Z,2.20
2018-06-20T12:32:38.496Z,1.80
2018-06-20T12:35:12.708Z,1.85
2018-06-20T12:37:46.854Z,1.90
2018-06-20T12:40:23.915Z,1.90
2018-06-20T12:42:57.989Z,1.60
2018-06-20T12:45:27.120Z,1.80
2018-06-20T12:47:58.592Z,2.00
2018-06-20T12:50:28.214Z,1.75
2018-06-20T12:52:57.694Z,1.85
2018-06-20T12:55:26.990Z,1.80
2018-06-20T12:57:56.584Z,3.12
2018-06-20T13:00:25.830Z,1.80
2018-06-20T13:02:55.090Z,1.70
2018-06-20T13:05:23.895Z,2.08
2018-06-20T13:07:52.826Z,1.90
2018-06-20T13:10:21.821Z,1.72
2018-06-20T13:12:50.689Z,1.70
2018-06-20T13:15:42.623Z,2.20
2018-06-20T13:18:11.437Z,2.00
2018-06-20T13:20:45.278Z,1.90
2018-06-20T13:23:18.051Z,1.85
2018-06-20T13:25:47.081Z,1.82
2018-06-20T13:28:15.909Z,1.90
2018-06-20T13:30:48.969Z,2.10
2018-06-20T13:33:23.141Z,1.62
2018-06-20T13:36:03.111Z,2.10
2018-06-20T13:38:36.904Z,1.80
2018-06-20T13:41:11.097Z,1.95
2018-06-20T13:43:45.073Z,2.08
2018-06-20T13:46:19.075Z,2.30
2018-06-20T13:48:58.041Z,1.85
2018-06-20T13:51:26.905Z,2.00
2018-06-20T13:53:55.745Z,1.62
2018-06-20T13:56:24.599Z,2.15
2018-06-20T13:59:00.928Z,1.50
2018-06-20T14:01:29.941Z,2.02
2018-06-20T14:03:58.929Z,2.10
2018-06-20T14:06:27.675Z,2.25
2018-06-20T14:08:56.855Z,2.80
2018-06-20T14:11:26.104Z,2.30
2018-06-20T14:13:54.895Z,2.30
2018-06-20T14:16:23.762Z,2.20
2018-06-20T14:18:52.555Z,2.20
2018-06-20T14:21:28.648Z,2.47
2018-06-20T14:23:57.513Z,2.25
2018-06-20T14:26:26.375Z,2.00
2018-06-20T14:28:55.331Z,1.85
2018-06-20T14:31:29.483Z,1.90
2018-06-20T14:34:03.705Z,1.80
2018-06-20T14:36:37.807Z,1.80
2018-06-20T14:39:14.213Z,1.92
2018-06-20T14:41:48.571Z,1.60
2018-06-20T14:44:17.678Z,1.70
2018-06-20T14:46:46.657Z,1.70
2018-06-20T14:49:15.527Z,1.70
2018-06-20T14:51:44.329Z,1.50
2018-06-20T14:54:13.119Z,1.80
2018-06-20T14:56:42.037Z,1.70
2018-06-20T14:59:10.960Z,1.70
2018-06-20T15:01:39.726Z,1.55
2018-06-20T15:04:08.593Z,1.92
2018-06-20T15:06:37.507Z,1.90
2018-06-20T15:09:08.663Z,1.50
2018-06-20T15:11:38.121Z,1.90
2018-06-20T15:14:07.191Z,1.72
2018-06-20T15:16:41.198Z,1.98
2018-06-20T15:19:10.106Z,2.00
2018-06-20T15:21:39.100Z,1.80
2018-06-20T15:24:07.925Z,1.80
2018-06-20T15:26:42.025Z,1.77
2018-06-20T15:29:16.036Z,1.60
2018-06-20T15:31:50.029Z,1.70
2018-06-20T15:34:24.063Z,1.65
2018-06-20T15:36:58.091Z,1.80
2018-06-20T15:39:26.927Z,1.70
2018-06-20T15:41:55.739Z,1.72
2018-06-20T15:44:24.972Z,1.62
2018-06-20T15:46:54.059Z,1.50
2018-06-20T15:49:23.651Z,1.50
2018-06-20T15:51:52.434Z,1.40
2018-06-20T15:54:21.471Z,1.90
2018-06-20T15:56:50.271Z,1.70
2018-06-20T15:59:19.141Z,1.90
2018-06-20T16:01:48.043Z,1.90
2018-06-20T16:04:16.775Z,1.87
2018-06-20T16:06:45.595Z,1.30
2018-06-20T16:09:19.604Z,1.60
2018-06-20T16:11:48.336Z,1.52
2018-06-20T16:14:17.169Z,1.40
2018-06-20T16:16:46.030Z,1.67
2018-06-20T16:19:20.281Z,1.67
2018-06-20T16:21:54.289Z,1.57
2018-06-20T16:24:28.359Z,1.85
2018-06-20T16:27:02.563Z,1.87
2018-06-20T16:29:36.701Z,1.80
2018-06-20T16:32:05.463Z,1.60
2018-06-20T16:34:34.263Z,1.47
2018-06-20T16:37:10.149Z,2.40
2018-06-20T16:39:38.965Z,1.80
2018-06-20T16:42:07.945Z,1.90
2018-06-20T16:44:36.730Z,1.72
2018-06-20T16:47:05.913Z,2.00
2018-06-20T16:49:38.059Z,1.92
2018-06-20T16:52:19.423Z,1.75
2018-06-20T16:54:48.257Z,1.80
2018-06-20T16:57:17.925Z,1.65
2018-06-20T16:59:50.421Z,1.47
2018-06-20T17:02:24.643Z,1.62
2018-06-20T17:04:53.486Z,1.47
2018-06-20T17:07:22.415Z,1.90
2018-06-20T17:09:51.255Z,1.80
2018-06-20T17:12:25.325Z,1.62
2018-06-20T17:14:59.397Z,1.70
2018-06-20T17:17:33.400Z,2.00
2018-06-20T17:20:07.381Z,1.80
2018-06-20T17:22:41.367Z,2.00
2018-06-20T17:25:28.474Z,1.60
2018-06-20T17:27:56.844Z,1.77
2018-06-20T17:30:25.838Z,1.57
2018-06-20T17:32:54.190Z,1.70
2018-06-20T17:35:22.959Z,2.20
2018-06-20T17:37:51.891Z,1.90
2018-06-20T17:40:20.773Z,1.82
2018-06-20T17:42:49.593Z,1.80
2018-06-20T17:45:18.467Z,1.80
2018-06-20T17:47:47.256Z,1.75
2018-06-20T17:50:16.069Z,1.80
2018-06-20T17:52:44.799Z,1.75
2018-06-20T17:55:13.662Z,1.82
2018-06-20T17:57:42.349Z,1.90
2018-06-20T18:00:11.268Z,1.90
2018-06-20T18:02:40.050Z,1.90
2018-06-20T18:05:14.262Z,2.00
2018-06-20T18:07:53.641Z,2.00
2018-06-20T18:10:27.681Z,2.08
2018-06-20T18:13:00.713Z,1.90
2018-06-20T18:15:34.677Z,2.10
2018-06-20T18:18:03.547Z,3.27
2018-06-20T18:20:31.905Z,2.02
2018-06-20T18:23:00.599Z,2.62
2018-06-20T18:25:29.340Z,3.00
2018-06-20T18:27:58.274Z,2.30
2018-06-20T18:30:27.040Z,2.12
2018-06-20T18:32:55.776Z,2.47
2018-06-20T18:35:24.776Z,2.45
2018-06-20T18:37:53.805Z,2.80
2018-06-20T18:40:22.806Z,2.67
2018-06-20T18:42:51.637Z,3.08
2018-06-20T18:45:20.450Z,1.95
2018-06-20T18:47:54.560Z,1.90
2018-06-20T18:50:23.354Z,1.85
2018-06-20T18:52:52.133Z,1.92
2018-06-20T18:55:21.043Z,1.82
2018-06-20T18:57:55.042Z,1.90
2018-06-20T19:00:34.652Z,1.80
2018-06-20T19:03:08.625Z,2.10
2018-06-20T19:05:42.680Z,2.10
2018-06-20T19:08:16.790Z,2.10
2018-06-20T19:10:45.668Z,1.90
2018-06-20T19:13:14.598Z,1.87
2018-06-20T19:15:43.471Z,1.87
2018-06-20T19:18:12.421Z,2.02
2018-06-20T19:20:41.220Z,1.75
2018-06-20T19:23:10.056Z,1.75
2018-06-20T19:25:39.125Z,2.12
2018-06-20T19:28:08.028Z,1.90
2018-06-20T19:30:36.855Z,2.12
2018-06-20T19:33:06.081Z,1.62
2018-06-20T19:35:38.625Z,1.95
2018-06-20T19:38:07.967Z,2.20
2018-06-20T19:40:36.988Z,2.00
2018-06-20T19:43:10.551Z,2.25
2018-06-20T19:45:39.547Z,2.07
2018-06-20T19:48:09.450Z,1.70
2018-06-20T19:50:58.636Z,2.10
2018-06-20T19:53:27.690Z,1.80
2018-06-20T19:55:56.538Z,2.00
2018-06-20T19:58:25.440Z,2.23
2018-06-20T20:00:54.264Z,2.27
2018-06-20T20:03:24.130Z,2.00
2018-06-20T20:05:53.014Z,2.00
2018-06-20T20:08:21.958Z,1.97
2018-06-20T20:10:57.917Z,1.97
2018-06-20T20:13:27.012Z,2.00
2018-06-20T20:15:56.020Z,2.10
2018-06-20T20:18:25.369Z,2.00
2018-06-20T20:20:54.284Z,2.40
2018-06-20T20:23:23.334Z,2.10
2018-06-20T20:25:52.316Z,2.03
2018-06-20T20:28:21.161Z,1.63
2018-06-20T20:31:07.115Z,2.07
2018-06-20T20:33:36.012Z,2.10
2018-06-20T20:36:04.934Z,2.20
2018-06-20T20:38:38.954Z,2.30
2018-06-20T20:41:07.897Z,2.30
2018-06-20T20:43:46.528Z,2.10
2018-06-20T20:46:15.662Z,2.07
2018-06-20T20:48:44.653Z,1.93
2018-06-20T20:51:14.258Z,2.00
2018-06-20T20:53:43.108Z,2.10
2018-06-20T20:56:12.190Z,2.10
2018-06-20T20:58:42.428Z,2.40
2018-06-20T21:01:11.374Z,2.40
2018-06-20T21:09:35.166Z,2.60
2018-06-20T21:12:04.074Z,2.40
2018-06-20T21:14:32.864Z,2.57
2018-06-20T21:17:01.869Z,2.37
2018-06-20T21:19:30.728Z,2.70
2018-06-20T21:21:59.564Z,2.40
2018-06-20T21:24:28.590Z,2.10
2018-06-20T21:26:57.422Z,2.30
2018-06-20T21:29:26.319Z,2.60
2018-06-20T21:31:55.117Z,2.70
2018-06-20T21:34:24.018Z,2.80
2018-06-20T21:36:52.882Z,3.10
2018-06-20T21:39:21.738Z,2.90
2018-06-20T21:41:50.588Z,2.90
2018-06-20T21:44:19.698Z,2.97
2018-06-20T21:46:48.555Z,2.90
2018-06-20T21:49:17.405Z,3.33
2018-06-20T21:51:46.205Z,2.90
2018-06-20T21:54:14.960Z,3.10
2018-06-20T21:56:43.824Z,2.90
2018-06-20T21:59:12.789Z,2.80
2018-06-20T22:01:41.632Z,3.10
2018-06-20T22:04:10.265Z,2.80
2018-06-20T22:06:39.103Z,2.63
2018-06-20T22:09:09.385Z,2.50
2018-06-20T22:11:38.831Z,2.90
2018-06-20T22:14:09.334Z,2.83
2018-06-20T22:16:38.828Z,2.83
2018-06-20T22:19:07.792Z,2.67
2018-06-20T22:21:36.736Z,2.60
2018-06-20T22:24:05.644Z,2.77
2018-06-20T22:26:34.506Z,3.07
2018-06-20T22:29:03.352Z,3.10
2018-06-20T22:31:32.262Z,2.70
2018-06-20T22:34:01.048Z,2.90
2018-06-20T22:36:29.904Z,3.50
2018-06-20T22:38:59.628Z,3.00
2018-06-20T22:41:28.595Z,3.40
2018-06-20T22:43:57.174Z,3.30
2018-06-20T22:46:25.954Z,3.10
2018-06-20T22:48:54.726Z,3.10
2018-06-20T22:51:23.556Z,2.63
2018-06-20T22:53:55.959Z,3.03
2018-06-20T22:56:24.750Z,3.40
2018-06-20T22:58:53.630Z,3.27
2018-06-20T23:01:22.532Z,3.40
2018-06-20T23:03:51.482Z,3.23
2018-06-20T23:06:20.429Z,3.73
2018-06-20T23:08:49.223Z,3.67
2018-06-20T23:11:18.178Z,3.30
2018-06-20T23:13:46.993Z,3.53
2018-06-20T23:16:15.826Z,3.63
2018-06-20T23:18:44.755Z,4.13
2018-06-20T23:21:13.647Z,3.90
2018-06-20T23:23:42.429Z,4.00
2018-06-20T23:26:11.382Z,3.80
2018-06-20T23:28:40.310Z,4.17
2018-06-20T23:31:09.141Z,4.23
2018-06-20T23:33:37.968Z,4.30
2018-06-20T23:36:06.864Z,4.90
2018-06-20T23:38:35.217Z,4.77
2018-06-20T23:41:04.271Z,4.70
2018-06-20T23:43:33.002Z,5.00
2018-06-20T23:46:01.806Z,4.93
2018-06-20T23:48:30.659Z,4.73
2018-06-20T23:50:59.552Z,4.87
2018-06-20T23:53:28.521Z,4.83
2018-06-20T23:55:57.309Z,4.80
2018-06-20T23:58:26.132Z,4.87
